sensor_id;sensor_type;location;lat;lon;timestamp;temperature;humidity
22795;DHT22;11564;50.920;11.612;2023-08-06T00:00:14;15.60;99.90
22795;DHT22;11564;50.920;11.612;2023-08-06T00:02:39;15.60;99.90
22795;DHT22;11564;50.920;11.612;2023-08-06T00:05:05;15.60;99.90
22795;DHT22;11564;50.920;11.612;2023-08-06T00:07:31;15.60;99.90
22795;DHT22;11564;50.920;11.612;2023-08-06T00:09:57;15.60;99.90
22795;DHT22;11564;50.920;11.612;2023-08-06T00:12:23;15.60;99.90
22795;DHT22;11564;50.920;11.612;2023-08-06T00:14:52;15.60;99.90
22795;DHT22;11564;50.920;11.612;2023-08-06T00:17:18;15.50;99.90
22795;DHT22;11564;50.920;11.612;2023-08-06T00:19:44;15.50;99.90
22795;DHT22;11564;50.920;11.612;2023-08-06T00:22:10;15.50;99.90
22795;DHT22;11564;50.920;11.612;2023-08-06T00:24:35;15.50;99.90
22795;DHT22;11564;50.920;11.612;2023-08-06T00:27:02;15.50;99.90
22795;DHT22;11564;50.920;11.612;2023-08-06T00:29:28;15.40;99.90
22795;DHT22;11564;50.920;11.612;2023-08-06T00:31:53;15.40;99.90
22795;DHT22;11564;50.920;11.612;2023-08-06T00:34:19;15.40;99.90
22795;DHT22;11564;50.920;11.612;2023-08-06T00:36:45;15.30;99.90
22795;DHT22;11564;50.920;11.612;2023-08-06T00:39:10;15.30;99.90
22795;DHT22;11564;50.920;11.612;2023-08-06T00:41:36;15.30;99.90
22795;DHT22;11564;50.920;11.612;2023-08-06T00:44:02;15.20;99.90
22795;DHT22;11564;50.920;11.612;2023-08-06T00:46:28;15.10;99.90
22795;DHT22;11564;50.920;11.612;2023-08-06T00:48:54;15.10;99.90
22795;DHT22;11564;50.920;11.612;2023-08-06T00:51:21;15.00;99.90
22795;DHT22;11564;50.920;11.612;2023-08-06T00:53:49;14.90;99.90
22795;DHT22;11564;50.920;11.612;2023-08-06T00:56:15;14.90;99.90
22795;DHT22;11564;50.920;11.612;2023-08-06T00:58:41;14.90;99.90
22795;DHT22;11564;50.920;11.612;2023-08-06T01:01:07;14.90;99.90
22795;DHT22;11564;50.920;11.612;2023-08-06T01:03:33;14.90;99.90
22795;DHT22;11564;50.920;11.612;2023-08-06T01:05:59;14.80;99.90
22795;DHT22;11564;50.920;11.612;2023-08-06T01:08:30;14.80;99.90
22795;DHT22;11564;50.920;11.612;2023-08-06T01:13:47;14.80;99.90
22795;DHT22;11564;50.920;11.612;2023-08-06T01:16:20;14.80;99.90
22795;DHT22;11564;50.920;11.612;2023-08-06T01:18:47;14.80;99.90
22795;DHT22;11564;50.920;11.612;2023-08-06T01:21:15;14.80;99.90
22795;DHT22;11564;50.920;11.612;2023-08-06T01:23:42;14.70;99.90
22795;DHT22;11564;50.920;11.612;2023-08-06T01:31:31;14.50;99.90
22795;DHT22;11564;50.920;11.612;2023-08-06T01:33:59;14.50;99.90
22795;DHT22;11564;50.920;11.612;2023-08-06T01:36:26;14.40;99.90
22795;DHT22;11564;50.920;11.612;2023-08-06T01:38:53;14.40;99.90
22795;DHT22;11564;50.920;11.612;2023-08-06T01:41:19;14.40;99.90
22795;DHT22;11564;50.920;11.612;2023-08-06T01:43:45;14.40;99.90
22795;DHT22;11564;50.920;11.612;2023-08-06T01:46:10;14.40;99.90
22795;DHT22;11564;50.920;11.612;2023-08-06T01:48:36;14.40;99.90
22795;DHT22;11564;50.920;11.612;2023-08-06T01:51:04;14.40;99.90
22795;DHT22;11564;50.920;11.612;2023-08-06T01:53:31;14.40;99.90
22795;DHT22;11564;50.920;11.612;2023-08-06T01:55:57;14.40;99.90
22795;DHT22;11564;50.920;11.612;2023-08-06T01:58:22;14.40;99.90
22795;DHT22;11564;50.920;11.612;2023-08-06T02:00:48;14.40;99.90
22795;DHT22;11564;50.920;11.612;2023-08-06T02:03:14;14.40;99.90
22795;DHT22;11564;50.920;11.612;2023-08-06T02:05:40;14.30;99.90
22795;DHT22;11564;50.920;11.612;2023-08-06T02:08:05;14.30;99.90
22795;DHT22;11564;50.920;11.612;2023-08-06T02:10:31;14.30;99.90
22795;DHT22;11564;50.920;11.612;2023-08-06T02:12:57;14.30;99.90
22795;DHT22;11564;50.920;11.612;2023-08-06T02:15:22;14.30;99.90
22795;DHT22;11564;50.920;11.612;2023-08-06T02:17:48;14.20;99.90
22795;DHT22;11564;50.920;11.612;2023-08-06T02:20:13;14.10;99.90
22795;DHT22;11564;50.920;11.612;2023-08-06T02:22:39;14.10;99.90
22795;DHT22;11564;50.920;11.612;2023-08-06T02:25:05;14.10;99.90
22795;DHT22;11564;50.920;11.612;2023-08-06T02:27:30;14.10;99.90
22795;DHT22;11564;50.920;11.612;2023-08-06T02:29:56;14.10;99.90
22795;DHT22;11564;50.920;11.612;2023-08-06T02:32:22;14.00;99.90
22795;DHT22;11564;50.920;11.612;2023-08-06T02:34:47;14.00;99.90
22795;DHT22;11564;50.920;11.612;2023-08-06T02:37:13;14.10;99.90
22795;DHT22;11564;50.920;11.612;2023-08-06T02:39:38;14.10;99.90
22795;DHT22;11564;50.920;11.612;2023-08-06T02:42:07;14.10;99.90
22795;DHT22;11564;50.920;11.612;2023-08-06T02:44:33;14.10;99.90
22795;DHT22;11564;50.920;11.612;2023-08-06T02:46:59;14.10;99.90
22795;DHT22;11564;50.920;11.612;2023-08-06T02:49:25;14.00;99.90
22795;DHT22;11564;50.920;11.612;2023-08-06T02:51:50;14.00;99.90
22795;DHT22;11564;50.920;11.612;2023-08-06T02:54:17;14.00;99.90
22795;DHT22;11564;50.920;11.612;2023-08-06T02:56:44;14.00;99.90
22795;DHT22;11564;50.920;11.612;2023-08-06T02:59:10;13.90;99.90
22795;DHT22;11564;50.920;11.612;2023-08-06T03:01:36;13.90;99.90
22795;DHT22;11564;50.920;11.612;2023-08-06T03:04:02;14.00;99.90
22795;DHT22;11564;50.920;11.612;2023-08-06T03:06:28;14.00;99.90
22795;DHT22;11564;50.920;11.612;2023-08-06T03:08:53;14.00;99.90
22795;DHT22;11564;50.920;11.612;2023-08-06T03:11:19;14.00;99.90
22795;DHT22;11564;50.920;11.612;2023-08-06T03:13:45;14.00;99.90
22795;DHT22;11564;50.920;11.612;2023-08-06T03:16:10;14.00;99.90
22795;DHT22;11564;50.920;11.612;2023-08-06T03:18:36;14.00;99.90
22795;DHT22;11564;50.920;11.612;2023-08-06T03:21:01;14.00;99.90
22795;DHT22;11564;50.920;11.612;2023-08-06T03:23:27;14.00;99.90
22795;DHT22;11564;50.920;11.612;2023-08-06T03:25:53;14.00;99.90
22795;DHT22;11564;50.920;11.612;2023-08-06T03:28:18;14.00;99.90
22795;DHT22;11564;50.920;11.612;2023-08-06T03:30:44;14.00;99.90
22795;DHT22;11564;50.920;11.612;2023-08-06T03:33:09;14.00;99.90
22795;DHT22;11564;50.920;11.612;2023-08-06T03:35:35;14.00;99.90
22795;DHT22;11564;50.920;11.612;2023-08-06T03:38:01;14.00;99.90
22795;DHT22;11564;50.920;11.612;2023-08-06T03:40:26;14.00;99.90
22795;DHT22;11564;50.920;11.612;2023-08-06T03:42:52;14.00;99.90
22795;DHT22;11564;50.920;11.612;2023-08-06T03:45:18;14.00;99.90
22795;DHT22;11564;50.920;11.612;2023-08-06T03:47:43;14.00;99.90
22795;DHT22;11564;50.920;11.612;2023-08-06T03:50:09;14.00;99.90
22795;DHT22;11564;50.920;11.612;2023-08-06T03:52:35;14.00;99.90
22795;DHT22;11564;50.920;11.612;2023-08-06T03:55:01;14.00;99.90
22795;DHT22;11564;50.920;11.612;2023-08-06T03:57:26;14.00;99.90
22795;DHT22;11564;50.920;11.612;2023-08-06T03:59:52;14.00;99.90
22795;DHT22;11564;50.920;11.612;2023-08-06T04:02:17;14.00;99.90
22795;DHT22;11564;50.920;11.612;2023-08-06T04:04:43;14.00;99.90
22795;DHT22;11564;50.920;11.612;2023-08-06T04:07:08;14.00;99.90
22795;DHT22;11564;50.920;11.612;2023-08-06T04:09:34;14.00;99.90
22795;DHT22;11564;50.920;11.612;2023-08-06T04:12:16;14.00;99.90
22795;DHT22;11564;50.920;11.612;2023-08-06T04:14:41;13.90;99.90
22795;DHT22;11564;50.920;11.612;2023-08-06T04:17:07;13.90;99.90
22795;DHT22;11564;50.920;11.612;2023-08-06T04:19:32;13.90;99.90
22795;DHT22;11564;50.920;11.612;2023-08-06T04:21:58;13.90;99.90
22795;DHT22;11564;50.920;11.612;2023-08-06T04:24:23;14.00;99.90
22795;DHT22;11564;50.920;11.612;2023-08-06T04:26:49;14.00;99.90
22795;DHT22;11564;50.920;11.612;2023-08-06T04:29:14;14.00;99.90
22795;DHT22;11564;50.920;11.612;2023-08-06T04:31:40;13.90;99.90
22795;DHT22;11564;50.920;11.612;2023-08-06T04:34:06;13.90;99.90
22795;DHT22;11564;50.920;11.612;2023-08-06T04:36:33;13.90;99.90
22795;DHT22;11564;50.920;11.612;2023-08-06T04:38:59;13.90;99.90
22795;DHT22;11564;50.920;11.612;2023-08-06T04:41:24;14.00;99.90
22795;DHT22;11564;50.920;11.612;2023-08-06T04:43:50;14.00;99.90
22795;DHT22;11564;50.920;11.612;2023-08-06T04:46:15;14.10;99.90
22795;DHT22;11564;50.920;11.612;2023-08-06T04:48:41;14.00;99.90
22795;DHT22;11564;50.920;11.612;2023-08-06T04:51:06;14.00;99.90
22795;DHT22;11564;50.920;11.612;2023-08-06T04:53:32;14.10;99.90
22795;DHT22;11564;50.920;11.612;2023-08-06T04:55:58;14.10;99.90
22795;DHT22;11564;50.920;11.612;2023-08-06T04:58:23;14.10;99.90
22795;DHT22;11564;50.920;11.612;2023-08-06T05:00:49;14.10;99.90
22795;DHT22;11564;50.920;11.612;2023-08-06T05:03:14;14.10;99.90
22795;DHT22;11564;50.920;11.612;2023-08-06T05:05:41;14.10;99.90
22795;DHT22;11564;50.920;11.612;2023-08-06T05:08:07;14.10;99.90
22795;DHT22;11564;50.920;11.612;2023-08-06T05:10:32;14.20;99.90
22795;DHT22;11564;50.920;11.612;2023-08-06T05:12:58;14.20;99.90
22795;DHT22;11564;50.920;11.612;2023-08-06T05:15:24;14.20;99.90
22795;DHT22;11564;50.920;11.612;2023-08-06T05:17:51;14.30;99.90
22795;DHT22;11564;50.920;11.612;2023-08-06T05:20:16;14.30;99.90
22795;DHT22;11564;50.920;11.612;2023-08-06T05:22:43;14.30;99.90
22795;DHT22;11564;50.920;11.612;2023-08-06T05:25:08;14.40;99.90
22795;DHT22;11564;50.920;11.612;2023-08-06T05:27:34;14.40;99.90
22795;DHT22;11564;50.920;11.612;2023-08-06T05:30:00;14.50;99.90
22795;DHT22;11564;50.920;11.612;2023-08-06T05:32:25;14.60;99.90
22795;DHT22;11564;50.920;11.612;2023-08-06T05:34:51;14.60;99.90
22795;DHT22;11564;50.920;11.612;2023-08-06T05:37:16;14.60;99.90
22795;DHT22;11564;50.920;11.612;2023-08-06T05:39:42;14.70;99.90
22795;DHT22;11564;50.920;11.612;2023-08-06T05:42:08;14.70;99.90
22795;DHT22;11564;50.920;11.612;2023-08-06T05:44:33;14.70;99.90
22795;DHT22;11564;50.920;11.612;2023-08-06T05:46:59;14.70;99.90
22795;DHT22;11564;50.920;11.612;2023-08-06T05:49:24;14.80;99.90
22795;DHT22;11564;50.920;11.612;2023-08-06T05:51:50;14.80;99.90
22795;DHT22;11564;50.920;11.612;2023-08-06T05:54:18;14.80;99.90
22795;DHT22;11564;50.920;11.612;2023-08-06T05:56:44;14.90;99.90
22795;DHT22;11564;50.920;11.612;2023-08-06T05:59:09;14.90;99.90
22795;DHT22;11564;50.920;11.612;2023-08-06T06:01:35;14.90;99.90
22795;DHT22;11564;50.920;11.612;2023-08-06T06:04:01;15.00;99.90
22795;DHT22;11564;50.920;11.612;2023-08-06T06:06:26;15.00;99.90
22795;DHT22;11564;50.920;11.612;2023-08-06T06:08:52;15.10;99.90
22795;DHT22;11564;50.920;11.612;2023-08-06T06:11:17;15.20;99.90
22795;DHT22;11564;50.920;11.612;2023-08-06T06:13:48;15.30;99.90
22795;DHT22;11564;50.920;11.612;2023-08-06T06:16:14;15.40;99.90
22795;DHT22;11564;50.920;11.612;2023-08-06T06:18:40;15.50;99.90
22795;DHT22;11564;50.920;11.612;2023-08-06T06:21:05;15.50;99.90
22795;DHT22;11564;50.920;11.612;2023-08-06T06:23:31;15.50;99.90
22795;DHT22;11564;50.920;11.612;2023-08-06T06:25:56;15.60;99.90
22795;DHT22;11564;50.920;11.612;2023-08-06T06:28:22;15.50;99.90
22795;DHT22;11564;50.920;11.612;2023-08-06T06:30:48;15.50;99.90
22795;DHT22;11564;50.920;11.612;2023-08-06T06:33:13;15.60;99.90
22795;DHT22;11564;50.920;11.612;2023-08-06T06:35:39;15.80;99.90
22795;DHT22;11564;50.920;11.612;2023-08-06T06:38:04;15.80;99.90
22795;DHT22;11564;50.920;11.612;2023-08-06T06:40:30;15.80;99.90
22795;DHT22;11564;50.920;11.612;2023-08-06T06:42:56;15.90;99.90
22795;DHT22;11564;50.920;11.612;2023-08-06T06:45:21;16.00;99.90
22795;DHT22;11564;50.920;11.612;2023-08-06T06:47:47;16.10;99.90
22795;DHT22;11564;50.920;11.612;2023-08-06T06:50:12;16.20;99.90
22795;DHT22;11564;50.920;11.612;2023-08-06T06:52:38;16.40;99.90
22795;DHT22;11564;50.920;11.612;2023-08-06T06:55:04;16.40;99.90
22795;DHT22;11564;50.920;11.612;2023-08-06T06:57:30;16.30;99.90
22795;DHT22;11564;50.920;11.612;2023-08-06T06:59:56;16.50;99.90
22795;DHT22;11564;50.920;11.612;2023-08-06T07:02:21;16.80;99.90
22795;DHT22;11564;50.920;11.612;2023-08-06T07:04:47;17.00;99.90
22795;DHT22;11564;50.920;11.612;2023-08-06T07:07:13;17.10;99.90
22795;DHT22;11564;50.920;11.612;2023-08-06T07:09:38;17.40;99.90
22795;DHT22;11564;50.920;11.612;2023-08-06T07:12:04;17.60;99.90
22795;DHT22;11564;50.920;11.612;2023-08-06T07:14:30;17.40;99.90
22795;DHT22;11564;50.920;11.612;2023-08-06T07:16:56;17.50;99.90
22795;DHT22;11564;50.920;11.612;2023-08-06T07:19:21;17.70;99.90
22795;DHT22;11564;50.920;11.612;2023-08-06T07:21:47;17.80;99.90
22795;DHT22;11564;50.920;11.612;2023-08-06T07:24:12;17.90;99.90
22795;DHT22;11564;50.920;11.612;2023-08-06T07:26:39;17.80;99.90
22795;DHT22;11564;50.920;11.612;2023-08-06T07:29:05;17.90;99.90
22795;DHT22;11564;50.920;11.612;2023-08-06T07:31:30;18.00;99.90
22795;DHT22;11564;50.920;11.612;2023-08-06T07:33:56;18.10;99.90
22795;DHT22;11564;50.920;11.612;2023-08-06T07:36:21;18.30;99.90
22795;DHT22;11564;50.920;11.612;2023-08-06T07:38:47;18.20;99.90
22795;DHT22;11564;50.920;11.612;2023-08-06T07:41:16;17.70;99.90
22795;DHT22;11564;50.920;11.612;2023-08-06T07:43:42;17.90;99.90
22795;DHT22;11564;50.920;11.612;2023-08-06T07:46:08;18.20;99.90
22795;DHT22;11564;50.920;11.612;2023-08-06T07:48:33;18.20;99.90
22795;DHT22;11564;50.920;11.612;2023-08-06T07:50:59;18.20;99.90
22795;DHT22;11564;50.920;11.612;2023-08-06T07:53:25;18.30;99.90
22795;DHT22;11564;50.920;11.612;2023-08-06T07:55:57;18.50;99.90
22795;DHT22;11564;50.920;11.612;2023-08-06T07:58:24;18.60;99.90
22795;DHT22;11564;50.920;11.612;2023-08-06T08:00:50;18.70;99.90
22795;DHT22;11564;50.920;11.612;2023-08-06T08:03:16;19.00;99.90
22795;DHT22;11564;50.920;11.612;2023-08-06T08:05:43;19.10;99.90
22795;DHT22;11564;50.920;11.612;2023-08-06T08:08:09;19.20;99.90
22795;DHT22;11564;50.920;11.612;2023-08-06T08:10:35;18.80;99.90
22795;DHT22;11564;50.920;11.612;2023-08-06T08:13:05;18.70;99.90
22795;DHT22;11564;50.920;11.612;2023-08-06T08:15:31;18.80;99.90
22795;DHT22;11564;50.920;11.612;2023-08-06T08:17:57;19.00;99.90
22795;DHT22;11564;50.920;11.612;2023-08-06T08:20:23;19.30;99.90
22795;DHT22;11564;50.920;11.612;2023-08-06T08:22:49;19.70;99.90
22795;DHT22;11564;50.920;11.612;2023-08-06T08:25:16;20.10;99.90
22795;DHT22;11564;50.920;11.612;2023-08-06T08:27:42;20.20;99.90
22795;DHT22;11564;50.920;11.612;2023-08-06T08:30:08;20.20;99.90
22795;DHT22;11564;50.920;11.612;2023-08-06T08:32:33;20.30;99.90
22795;DHT22;11564;50.920;11.612;2023-08-06T08:34:59;20.60;99.90
22795;DHT22;11564;50.920;11.612;2023-08-06T08:37:24;20.50;99.90
22795;DHT22;11564;50.920;11.612;2023-08-06T08:39:50;20.60;99.90
22795;DHT22;11564;50.920;11.612;2023-08-06T08:42:16;20.50;99.90
22795;DHT22;11564;50.920;11.612;2023-08-06T08:44:45;20.60;99.90
22795;DHT22;11564;50.920;11.612;2023-08-06T08:47:11;20.80;99.90
22795;DHT22;11564;50.920;11.612;2023-08-06T08:49:37;21.00;99.90
22795;DHT22;11564;50.920;11.612;2023-08-06T08:52:03;21.10;99.90
22795;DHT22;11564;50.920;11.612;2023-08-06T08:54:34;21.10;99.90
22795;DHT22;11564;50.920;11.612;2023-08-06T08:57:00;21.20;99.90
22795;DHT22;11564;50.920;11.612;2023-08-06T08:59:27;21.30;99.90
22795;DHT22;11564;50.920;11.612;2023-08-06T09:01:53;21.40;99.90
22795;DHT22;11564;50.920;11.612;2023-08-06T09:04:20;21.40;99.90
22795;DHT22;11564;50.920;11.612;2023-08-06T09:06:50;21.10;99.90
22795;DHT22;11564;50.920;11.612;2023-08-06T09:09:22;21.50;99.90
22795;DHT22;11564;50.920;11.612;2023-08-06T09:11:50;21.60;99.90
22795;DHT22;11564;50.920;11.612;2023-08-06T09:14:17;21.70;99.90
22795;DHT22;11564;50.920;11.612;2023-08-06T09:16:43;21.80;99.90
22795;DHT22;11564;50.920;11.612;2023-08-06T09:19:13;21.90;99.90
22795;DHT22;11564;50.920;11.612;2023-08-06T09:21:41;21.80;99.90
22795;DHT22;11564;50.920;11.612;2023-08-06T09:24:11;21.90;99.90
22795;DHT22;11564;50.920;11.612;2023-08-06T09:26:38;21.70;99.90
22795;DHT22;11564;50.920;11.612;2023-08-06T09:29:08;21.80;99.90
22795;DHT22;11564;50.920;11.612;2023-08-06T09:31:44;21.90;99.90
22795;DHT22;11564;50.920;11.612;2023-08-06T09:34:21;21.30;99.90
22795;DHT22;11564;50.920;11.612;2023-08-06T09:36:54;21.40;99.90
22795;DHT22;11564;50.920;11.612;2023-08-06T09:39:21;21.20;99.90
22795;DHT22;11564;50.920;11.612;2023-08-06T09:41:48;21.30;99.90
22795;DHT22;11564;50.920;11.612;2023-08-06T09:44:18;21.60;99.90
22795;DHT22;11564;50.920;11.612;2023-08-06T09:46:51;21.90;99.90
22795;DHT22;11564;50.920;11.612;2023-08-06T09:49:19;22.10;99.90
22795;DHT22;11564;50.920;11.612;2023-08-06T09:51:46;22.30;99.90
22795;DHT22;11564;50.920;11.612;2023-08-06T09:54:15;22.60;99.90
22795;DHT22;11564;50.920;11.612;2023-08-06T09:56:42;22.80;99.90
22795;DHT22;11564;50.920;11.612;2023-08-06T09:59:08;22.90;99.90
22795;DHT22;11564;50.920;11.612;2023-08-06T10:01:35;22.60;99.90
22795;DHT22;11564;50.920;11.612;2023-08-06T10:04:03;22.10;99.90
22795;DHT22;11564;50.920;11.612;2023-08-06T10:06:29;21.50;99.90
22795;DHT22;11564;50.920;11.612;2023-08-06T10:08:55;21.80;99.90
22795;DHT22;11564;50.920;11.612;2023-08-06T10:11:24;21.60;99.90
22795;DHT22;11564;50.920;11.612;2023-08-06T10:14:08;21.20;99.90
22795;DHT22;11564;50.920;11.612;2023-08-06T10:16:36;21.50;99.90
22795;DHT22;11564;50.920;11.612;2023-08-06T10:19:04;20.90;99.90
22795;DHT22;11564;50.920;11.612;2023-08-06T10:21:31;20.90;99.90
22795;DHT22;11564;50.920;11.612;2023-08-06T10:23:57;21.00;99.90
22795;DHT22;11564;50.920;11.612;2023-08-06T10:26:30;21.00;99.90
22795;DHT22;11564;50.920;11.612;2023-08-06T10:28:56;21.10;99.90
22795;DHT22;11564;50.920;11.612;2023-08-06T10:31:53;21.20;99.90
22795;DHT22;11564;50.920;11.612;2023-08-06T10:34:19;21.30;99.90
22795;DHT22;11564;50.920;11.612;2023-08-06T10:36:45;21.70;99.90
22795;DHT22;11564;50.920;11.612;2023-08-06T10:39:14;22.10;99.90
22795;DHT22;11564;50.920;11.612;2023-08-06T10:41:42;22.10;99.90
22795;DHT22;11564;50.920;11.612;2023-08-06T10:44:09;22.00;99.90
22795;DHT22;11564;50.920;11.612;2023-08-06T10:46:36;21.80;99.90
22795;DHT22;11564;50.920;11.612;2023-08-06T10:49:03;21.80;99.90
22795;DHT22;11564;50.920;11.612;2023-08-06T10:51:29;21.90;99.90
22795;DHT22;11564;50.920;11.612;2023-08-06T10:53:54;21.90;99.90
22795;DHT22;11564;50.920;11.612;2023-08-06T10:56:23;21.90;99.90
22795;DHT22;11564;50.920;11.612;2023-08-06T10:58:50;21.90;99.90
22795;DHT22;11564;50.920;11.612;2023-08-06T11:01:16;22.10;99.90
22795;DHT22;11564;50.920;11.612;2023-08-06T11:03:43;22.20;99.90
22795;DHT22;11564;50.920;11.612;2023-08-06T11:06:10;22.30;99.90
22795;DHT22;11564;50.920;11.612;2023-08-06T11:08:37;22.60;99.90
22795;DHT22;11564;50.920;11.612;2023-08-06T11:11:14;22.80;99.90
22795;DHT22;11564;50.920;11.612;2023-08-06T11:13:40;22.80;99.90
22795;DHT22;11564;50.920;11.612;2023-08-06T11:16:06;22.70;99.90
22795;DHT22;11564;50.920;11.612;2023-08-06T11:18:35;22.80;99.90
22795;DHT22;11564;50.920;11.612;2023-08-06T11:21:01;22.80;99.90
22795;DHT22;11564;50.920;11.612;2023-08-06T11:23:28;22.90;99.90
22795;DHT22;11564;50.920;11.612;2023-08-06T11:25:57;23.30;99.90
22795;DHT22;11564;50.920;11.612;2023-08-06T11:28:23;23.70;99.90
22795;DHT22;11564;50.920;11.612;2023-08-06T11:30:50;24.00;99.90
22795;DHT22;11564;50.920;11.612;2023-08-06T11:33:25;24.30;99.90
22795;DHT22;11564;50.920;11.612;2023-08-06T11:35:51;24.80;99.90
22795;DHT22;11564;50.920;11.612;2023-08-06T11:38:17;25.30;99.90
22795;DHT22;11564;50.920;11.612;2023-08-06T11:40:50;25.40;99.90
22795;DHT22;11564;50.920;11.612;2023-08-06T11:43:18;25.30;99.90
22795;DHT22;11564;50.920;11.612;2023-08-06T11:45:44;25.30;99.90
22795;DHT22;11564;50.920;11.612;2023-08-06T11:48:09;25.00;99.90
22795;DHT22;11564;50.920;11.612;2023-08-06T11:50:38;24.80;99.90
22795;DHT22;11564;50.920;11.612;2023-08-06T11:53:04;24.70;99.90
22795;DHT22;11564;50.920;11.612;2023-08-06T11:55:31;24.70;99.90
22795;DHT22;11564;50.920;11.612;2023-08-06T11:57:57;24.50;99.90
22795;DHT22;11564;50.920;11.612;2023-08-06T12:00:24;24.30;99.90
22795;DHT22;11564;50.920;11.612;2023-08-06T12:02:50;23.10;99.90
22795;DHT22;11564;50.920;11.612;2023-08-06T12:05:18;22.20;99.90
22795;DHT22;11564;50.920;11.612;2023-08-06T12:07:49;22.00;99.90
22795;DHT22;11564;50.920;11.612;2023-08-06T12:10:17;21.90;99.90
22795;DHT22;11564;50.920;11.612;2023-08-06T12:12:42;22.00;99.90
22795;DHT22;11564;50.920;11.612;2023-08-06T12:15:09;21.80;99.90
22795;DHT22;11564;50.920;11.612;2023-08-06T12:17:36;21.70;99.90
22795;DHT22;11564;50.920;11.612;2023-08-06T12:20:03;22.00;99.90
22795;DHT22;11564;50.920;11.612;2023-08-06T12:22:30;22.70;99.90
22795;DHT22;11564;50.920;11.612;2023-08-06T12:25:00;23.50;99.90
22795;DHT22;11564;50.920;11.612;2023-08-06T12:27:26;24.10;99.90
22795;DHT22;11564;50.920;11.612;2023-08-06T12:29:52;24.30;99.90
22795;DHT22;11564;50.920;11.612;2023-08-06T12:32:17;24.00;99.90
22795;DHT22;11564;50.920;11.612;2023-08-06T12:34:44;23.70;99.90
22795;DHT22;11564;50.920;11.612;2023-08-06T12:37:10;23.30;99.90
22795;DHT22;11564;50.920;11.612;2023-08-06T12:39:36;23.00;99.90
22795;DHT22;11564;50.920;11.612;2023-08-06T12:42:04;22.20;99.90
22795;DHT22;11564;50.920;11.612;2023-08-06T12:44:30;21.80;99.90
22795;DHT22;11564;50.920;11.612;2023-08-06T12:46:56;20.90;99.90
22795;DHT22;11564;50.920;11.612;2023-08-06T12:49:23;20.40;99.90
22795;DHT22;11564;50.920;11.612;2023-08-06T12:51:50;20.10;99.90
22795;DHT22;11564;50.920;11.612;2023-08-06T12:54:17;20.30;99.90
22795;DHT22;11564;50.920;11.612;2023-08-06T12:56:44;20.30;99.90
22795;DHT22;11564;50.920;11.612;2023-08-06T12:59:10;20.50;99.90
22795;DHT22;11564;50.920;11.612;2023-08-06T13:01:36;20.80;99.90
22795;DHT22;11564;50.920;11.612;2023-08-06T13:04:02;21.50;99.90
22795;DHT22;11564;50.920;11.612;2023-08-06T13:06:28;22.10;99.90
22795;DHT22;11564;50.920;11.612;2023-08-06T13:08:53;22.50;99.90
22795;DHT22;11564;50.920;11.612;2023-08-06T13:11:19;23.30;99.90
22795;DHT22;11564;50.920;11.612;2023-08-06T13:13:45;24.40;99.90
22795;DHT22;11564;50.920;11.612;2023-08-06T13:16:10;25.90;99.90
22795;DHT22;11564;50.920;11.612;2023-08-06T13:18:36;27.60;99.90
22795;DHT22;11564;50.920;11.612;2023-08-06T13:21:01;27.80;99.90
22795;DHT22;11564;50.920;11.612;2023-08-06T13:23:27;28.80;99.90
22795;DHT22;11564;50.920;11.612;2023-08-06T13:25:53;31.20;99.90
22795;DHT22;11564;50.920;11.612;2023-08-06T13:28:19;33.50;99.20
22795;DHT22;11564;50.920;11.612;2023-08-06T13:30:45;36.00;92.50
22795;DHT22;11564;50.920;11.612;2023-08-06T13:33:11;36.10;79.80
22795;DHT22;11564;50.920;11.612;2023-08-06T13:35:37;34.20;75.30
22795;DHT22;11564;50.920;11.612;2023-08-06T13:38:03;31.30;80.50
22795;DHT22;11564;50.920;11.612;2023-08-06T13:40:31;29.30;85.20
22795;DHT22;11564;50.920;11.612;2023-08-06T13:42:57;27.60;91.70
22795;DHT22;11564;50.920;11.612;2023-08-06T13:45:23;27.00;96.40
22795;DHT22;11564;50.920;11.612;2023-08-06T13:47:48;26.20;99.20
22795;DHT22;11564;50.920;11.612;2023-08-06T13:50:14;25.30;99.90
22795;DHT22;11564;50.920;11.612;2023-08-06T13:52:40;24.50;99.90
22795;DHT22;11564;50.920;11.612;2023-08-06T13:55:06;23.50;99.90
22795;DHT22;11564;50.920;11.612;2023-08-06T13:57:32;22.30;99.90
22795;DHT22;11564;50.920;11.612;2023-08-06T13:59:58;21.40;99.90
22795;DHT22;11564;50.920;11.612;2023-08-06T14:02:23;20.80;99.90
22795;DHT22;11564;50.920;11.612;2023-08-06T14:04:49;20.40;99.90
22795;DHT22;11564;50.920;11.612;2023-08-06T14:07:15;19.70;99.90
22795;DHT22;11564;50.920;11.612;2023-08-06T14:09:40;19.10;99.90
22795;DHT22;11564;50.920;11.612;2023-08-06T14:12:07;19.20;99.90
22795;DHT22;11564;50.920;11.612;2023-08-06T14:14:33;19.10;99.90
22795;DHT22;11564;50.920;11.612;2023-08-06T14:16:59;19.10;99.90
22795;DHT22;11564;50.920;11.612;2023-08-06T14:19:25;19.00;99.90
22795;DHT22;11564;50.920;11.612;2023-08-06T14:21:50;18.90;99.90
22795;DHT22;11564;50.920;11.612;2023-08-06T14:24:16;18.90;99.90
22795;DHT22;11564;50.920;11.612;2023-08-06T14:26:41;18.90;99.90
22795;DHT22;11564;50.920;11.612;2023-08-06T14:29:07;19.00;99.90
22795;DHT22;11564;50.920;11.612;2023-08-06T14:31:33;19.00;99.90
22795;DHT22;11564;50.920;11.612;2023-08-06T14:33:58;18.80;99.90
22795;DHT22;11564;50.920;11.612;2023-08-06T14:36:24;18.70;99.90
22795;DHT22;11564;50.920;11.612;2023-08-06T14:38:49;18.60;99.90
22795;DHT22;11564;50.920;11.612;2023-08-06T14:41:15;18.70;99.90
22795;DHT22;11564;50.920;11.612;2023-08-06T14:43:41;18.70;99.90
22795;DHT22;11564;50.920;11.612;2023-08-06T14:46:06;18.60;99.90
22795;DHT22;11564;50.920;11.612;2023-08-06T14:48:32;18.40;99.90
22795;DHT22;11564;50.920;11.612;2023-08-06T14:50:58;18.30;99.90
22795;DHT22;11564;50.920;11.612;2023-08-06T14:53:24;18.40;99.90
22795;DHT22;11564;50.920;11.612;2023-08-06T14:55:49;18.70;99.90
22795;DHT22;11564;50.920;11.612;2023-08-06T14:58:15;19.00;99.90
22795;DHT22;11564;50.920;11.612;2023-08-06T15:00:41;19.40;99.90
22795;DHT22;11564;50.920;11.612;2023-08-06T15:03:07;19.80;99.90
22795;DHT22;11564;50.920;11.612;2023-08-06T15:05:32;20.50;99.90
22795;DHT22;11564;50.920;11.612;2023-08-06T15:07:58;21.50;99.90
22795;DHT22;11564;50.920;11.612;2023-08-06T15:10:24;21.80;99.90
22795;DHT22;11564;50.920;11.612;2023-08-06T15:12:49;22.40;99.90
22795;DHT22;11564;50.920;11.612;2023-08-06T15:15:15;25.10;99.90
22795;DHT22;11564;50.920;11.612;2023-08-06T15:17:40;28.20;99.90